Time;durP1;ratioP1;P1;durP2;ratioP2;P2;SDS_P1;SDS_P2;PMS_P1;PMS_P2;Temp;Humidity;BMP_temperature;BMP_pressure;BME280_temperature;BME280_humidity;BME280_pressure;Samples;Min_cycle;Max_cycle;Signal;HPM_P1;HPM_P2
2021/01/17 00:01:30;;;;;;;34.80;25.30;;;0.30;99.90;;;;;;5052721;28;20177;-66
2021/01/17 00:03:56;;;;;;;34.73;24.77;;;0.30;99.90;;;;;;5052746;28;20176;-66
2021/01/17 00:06:21;;;;;;;34.93;26.03;;;0.40;99.90;;;;;;5057761;28;20187;-66
2021/01/17 00:08:47;;;;;;;38.03;27.50;;;0.40;99.90;;;;;;5059529;28;20540;-66
2021/01/17 00:11:13;;;;;;;38.93;27.30;;;0.30;99.90;;;;;;5051896;28;20188;-66
2021/01/17 00:13:38;;;;;;;38.33;25.47;;;0.40;99.90;;;;;;5060698;28;20196;-66
2021/01/17 00:16:04;;;;;;;38.00;27.63;;;0.40;99.90;;;;;;5062237;28;21168;-66
2021/01/17 00:18:30;;;;;;;34.20;25.97;;;0.30;99.90;;;;;;5055066;28;20174;-66
2021/01/17 00:20:55;;;;;;;36.67;26.40;;;0.30;99.90;;;;;;5052889;28;20483;-66
2021/01/17 00:23:21;;;;;;;36.97;26.23;;;0.30;99.90;;;;;;5053807;28;20641;-66
2021/01/17 00:25:46;;;;;;;34.60;24.43;;;0.30;99.90;;;;;;5055959;28;20177;-65
2021/01/17 00:28:12;;;;;;;35.47;25.73;;;0.30;99.90;;;;;;5059221;28;20184;-65
2021/01/17 00:30:37;;;;;;;41.07;27.07;;;0.30;99.90;;;;;;5054162;28;20187;-66
2021/01/17 00:33:04;;;;;;;39.47;27.73;;;0.40;99.90;;;;;;5051588;28;20304;-66
2021/01/17 00:35:31;;;;;;;38.80;26.23;;;0.40;99.90;;;;;;5052154;28;20227;-66
2021/01/17 00:37:59;;;;;;;41.50;26.00;;;0.40;99.90;;;;;;5052842;28;20795;-65
2021/01/17 00:40:26;;;;;;;35.80;25.57;;;0.40;99.90;;;;;;5050822;28;21215;-65
2021/01/17 00:42:52;;;;;;;39.00;27.60;;;0.40;99.90;;;;;;5050122;28;20815;-65
2021/01/17 00:45:18;;;;;;;39.03;27.20;;;0.40;99.90;;;;;;5052091;28;20432;-65
2021/01/17 00:47:46;;;;;;;36.77;26.73;;;0.40;99.90;;;;;;5051400;28;20223;-65
2021/01/17 00:50:16;;;;;;;41.77;28.37;;;0.40;99.90;;;;;;5052726;28;20427;-65
2021/01/17 00:52:42;;;;;;;33.73;26.60;;;0.40;99.90;;;;;;5051911;28;20433;-65
2021/01/17 00:55:08;;;;;;;37.13;28.17;;;0.50;99.90;;;;;;5059741;28;20974;-66
2021/01/17 00:57:34;;;;;;;36.47;27.87;;;0.50;99.90;;;;;;5054434;28;20251;-65
2021/01/17 01:00:00;;;;;;;40.50;29.73;;;0.50;99.90;;;;;;5063352;28;20799;-65
2021/01/17 01:02:26;;;;;;;37.93;28.80;;;0.50;99.90;;;;;;5057590;28;20430;-66
2021/01/17 01:04:51;;;;;;;38.17;28.80;;;0.50;99.90;;;;;;5055199;28;20230;-65
2021/01/17 01:07:17;;;;;;;35.30;26.97;;;0.50;99.90;;;;;;5061337;28;20597;-66
2021/01/17 01:09:42;;;;;;;34.83;25.27;;;0.50;99.90;;;;;;5055019;28;20225;-66
2021/01/17 01:12:08;;;;;;;35.70;27.50;;;0.60;99.90;;;;;;5055034;28;20187;-65
2021/01/17 01:14:33;;;;;;;38.10;27.30;;;0.60;99.90;;;;;;5059331;28;20557;-65
2021/01/17 01:16:59;;;;;;;39.20;29.17;;;0.60;99.90;;;;;;5054873;28;20545;-65
2021/01/17 01:19:25;;;;;;;35.40;26.90;;;0.50;99.90;;;;;;5056063;28;20183;-65
2021/01/17 01:21:50;;;;;;;36.30;27.93;;;0.50;99.90;;;;;;5058777;28;20172;-65
2021/01/17 01:24:16;;;;;;;40.10;28.67;;;0.50;99.90;;;;;;5055246;28;20274;-65
2021/01/17 01:26:46;;;;;;;38.60;28.10;;;0.40;99.90;;;;;;5063829;28;20204;-66
2021/01/17 01:29:12;;;;;;;37.03;27.87;;;0.50;99.90;;;;;;5057547;28;20172;-66
2021/01/17 01:31:39;;;;;;;36.33;27.63;;;0.50;99.90;;;;;;5053635;28;20433;-66
2021/01/17 01:34:05;;;;;;;34.47;26.00;;;0.50;99.90;;;;;;5056227;28;20958;-65
2021/01/17 01:36:33;;;;;;;32.37;25.57;;;0.50;99.90;;;;;;5055490;28;20543;-65
2021/01/17 01:38:59;;;;;;;34.63;25.80;;;0.50;99.90;;;;;;5056065;28;20805;-65
2021/01/17 01:41:29;;;;;;;37.27;25.83;;;0.60;99.90;;;;;;5053554;28;20427;-66
2021/01/17 01:43:55;;;;;;;38.13;27.40;;;0.50;99.90;;;;;;5055517;28;20188;-66
2021/01/17 01:46:22;;;;;;;33.97;26.40;;;0.50;99.90;;;;;;5054524;28;20422;-66
2021/01/17 01:48:49;;;;;;;37.53;27.17;;;0.50;99.90;;;;;;5053933;28;20479;-66
2021/01/17 01:51:16;;;;;;;36.60;25.90;;;0.50;99.90;;;;;;5056167;28;21292;-65
2021/01/17 01:53:42;;;;;;;38.10;27.30;;;0.50;99.90;;;;;;5057066;28;20457;-66
2021/01/17 01:56:08;;;;;;;38.90;29.27;;;0.50;99.90;;;;;;5054721;28;20430;-65
2021/01/17 01:58:35;;;;;;;43.43;29.60;;;0.50;99.90;;;;;;5061657;28;20849;-66
2021/01/17 02:01:01;;;;;;;37.37;27.20;;;0.60;99.90;;;;;;5054397;28;20524;-66
2021/01/17 02:03:26;;;;;;;35.33;26.67;;;0.60;99.90;;;;;;5055902;28;20426;-65
2021/01/17 02:05:52;;;;;;;37.43;27.40;;;0.60;99.90;;;;;;5054544;28;20179;-66
2021/01/17 02:08:38;;;;;;;35.37;25.80;;;0.70;99.90;;;;;;5054619;28;20196;-66
2021/01/17 02:11:12;;;;;;;39.87;26.57;;;0.60;99.90;;;;;;5059117;28;20172;-66
2021/01/17 02:13:40;;;;;;;36.10;26.70;;;0.60;99.90;;;;;;5054930;28;20469;-66
2021/01/17 02:16:07;;;;;;;32.70;25.90;;;0.50;99.90;;;;;;5058314;28;20471;-65
2021/01/17 02:18:40;;;;;;;39.00;27.23;;;0.50;99.90;;;;;;5055317;28;20785;-65
2021/01/17 02:21:08;;;;;;;34.17;26.17;;;0.50;99.90;;;;;;5056672;28;20425;-66
2021/01/17 02:23:42;;;;;;;34.90;26.20;;;0.50;99.90;;;;;;5054198;28;20437;-66
2021/01/17 02:26:08;;;;;;;37.53;26.80;;;0.50;99.90;;;;;;5052063;28;20421;-65
2021/01/17 02:28:34;;;;;;;43.73;30.83;;;0.50;99.90;;;;;;5054348;28;20481;-66
2021/01/17 02:31:02;;;;;;;36.77;27.67;;;0.50;99.90;;;;;;5059082;28;20176;-65
2021/01/17 02:33:32;;;;;;;36.03;25.97;;;0.50;99.90;;;;;;5054453;28;20535;-65
2021/01/17 02:36:23;;;;;;;40.77;28.30;;;0.50;99.90;;;;;;5053616;28;20947;-65
2021/01/17 02:39:04;;;;;;;34.90;26.00;;;0.50;99.90;;;;;;5046324;28;20542;-65
2021/01/17 02:41:29;;;;;;;36.93;26.90;;;0.60;99.90;;;;;;5072666;28;20465;-66
2021/01/17 02:43:55;;;;;;;35.70;29.10;;;0.50;99.90;;;;;;5055673;28;20450;-65
2021/01/17 02:46:20;;;;;;;36.83;27.50;;;0.50;99.90;;;;;;5056290;28;20176;-65
2021/01/17 02:48:46;;;;;;;41.40;27.87;;;0.60;99.90;;;;;;5061190;28;20268;-65
2021/01/17 02:51:12;;;;;;;34.77;23.90;;;0.60;99.90;;;;;;5056534;28;20551;-66
2021/01/17 02:54:12;;;;;;;35.13;27.70;;;0.60;99.90;;;;;;5057801;28;20723;-65
2021/01/17 02:56:44;;;;;;;36.00;25.67;;;0.70;99.90;;;;;;5014195;28;20477;-66
2021/01/17 02:59:13;;;;;;;39.57;28.63;;;0.70;99.90;;;;;;5051415;28;20426;-66
2021/01/17 03:01:40;;;;;;;38.50;26.27;;;0.70;99.90;;;;;;5060436;28;20521;-66
2021/01/17 03:04:35;;;;;;;35.83;27.63;;;0.70;99.90;;;;;;5053114;28;20431;-66
2021/01/17 03:07:04;;;;;;;41.33;28.47;;;0.70;99.90;;;;;;5048805;28;20434;-66
2021/01/17 03:09:30;;;;;;;38.23;27.57;;;0.70;99.90;;;;;;5059437;28;20443;-66
2021/01/17 03:12:01;;;;;;;36.80;28.47;;;0.70;99.90;;;;;;5054401;28;20433;-66
2021/01/17 03:14:29;;;;;;;34.30;25.90;;;0.60;99.90;;;;;;5053107;28;20192;-65
2021/01/17 03:16:55;;;;;;;36.13;26.40;;;0.70;99.90;;;;;;5055883;28;20484;-65
2021/01/17 03:19:20;;;;;;;33.57;24.97;;;0.70;99.90;;;;;;5056443;28;20447;-66
2021/01/17 03:21:46;;;;;;;38.90;29.13;;;0.70;99.90;;;;;;5055995;28;20186;-65
2021/01/17 03:24:11;;;;;;;33.10;26.90;;;0.70;99.90;;;;;;5053203;28;20199;-66
2021/01/17 03:26:37;;;;;;;36.90;26.07;;;0.70;99.90;;;;;;5062340;28;20196;-66
2021/01/17 03:29:02;;;;;;;34.87;25.30;;;0.70;99.90;;;;;;5054333;28;20192;-66
2021/01/17 03:31:28;;;;;;;39.63;27.57;;;0.70;99.90;;;;;;5062562;28;20557;-66
2021/01/17 03:33:53;;;;;;;36.20;24.90;;;0.70;99.90;;;;;;5054131;28;20220;-65
2021/01/17 03:36:19;;;;;;;36.70;25.40;;;0.80;99.90;;;;;;5052832;28;20560;-65
2021/01/17 03:38:44;;;;;;;42.00;28.93;;;0.80;99.90;;;;;;5052713;28;20199;-66
2021/01/17 03:41:12;;;;;;;37.83;28.97;;;0.80;99.90;;;;;;5053879;28;20518;-66
2021/01/17 03:43:38;;;;;;;38.33;26.77;;;0.80;99.90;;;;;;5052449;28;20183;-66
2021/01/17 03:46:04;;;;;;;36.13;25.97;;;0.80;99.90;;;;;;5056385;28;20948;-66
2021/01/17 03:48:29;;;;;;;34.30;24.93;;;0.80;99.90;;;;;;5057067;28;20171;-65
2021/01/17 03:50:55;;;;;;;32.30;24.93;;;0.80;99.90;;;;;;5052479;28;20183;-65
2021/01/17 03:53:21;;;;;;;34.70;24.40;;;0.80;99.90;;;;;;5052851;28;20184;-65
2021/01/17 03:55:46;;;;;;;34.97;26.07;;;0.80;99.90;;;;;;5052917;28;20183;-66
2021/01/17 03:58:12;;;;;;;36.57;27.30;;;0.80;99.90;;;;;;5052991;28;20176;-66
2021/01/17 04:00:37;;;;;;;37.13;26.27;;;0.80;99.90;;;;;;5052542;28;20181;-66
2021/01/17 04:03:03;;;;;;;39.10;26.70;;;0.70;99.90;;;;;;5057027;28;20199;-66
2021/01/17 04:05:28;;;;;;;41.60;28.73;;;0.70;99.90;;;;;;5057146;28;20208;-66
2021/01/17 04:07:54;;;;;;;33.40;25.20;;;0.70;99.90;;;;;;5053014;28;20480;-66
2021/01/17 04:10:19;;;;;;;34.30;24.77;;;0.70;99.90;;;;;;5067748;28;20168;-66
2021/01/17 04:12:45;;;;;;;36.17;26.00;;;0.70;99.90;;;;;;5051315;28;20176;-66
2021/01/17 04:15:11;;;;;;;42.53;28.40;;;0.70;99.90;;;;;;5052671;28;20212;-66
2021/01/17 04:17:36;;;;;;;35.77;25.53;;;0.70;99.90;;;;;;5056253;28;20183;-66
2021/01/17 04:20:03;;;;;;;37.47;27.17;;;0.70;99.90;;;;;;5055987;28;20440;-66
2021/01/17 04:22:29;;;;;;;40.77;28.10;;;0.70;99.90;;;;;;5056454;28;20429;-66
2021/01/17 04:24:54;;;;;;;37.00;25.13;;;0.70;99.90;;;;;;5053109;28;20786;-66
2021/01/17 04:27:20;;;;;;;37.10;27.33;;;0.70;99.90;;;;;;5054494;28;20412;-66
2021/01/17 04:29:45;;;;;;;37.93;27.10;;;0.70;99.90;;;;;;5050774;28;20704;-66
2021/01/17 04:32:11;;;;;;;39.20;27.73;;;0.80;99.90;;;;;;5062042;28;20227;-66
2021/01/17 04:34:36;;;;;;;38.13;29.00;;;0.80;99.90;;;;;;5056780;28;20215;-66
2021/01/17 04:37:02;;;;;;;40.00;27.10;;;0.80;99.90;;;;;;5060529;28;20182;-66
2021/01/17 04:39:27;;;;;;;36.80;27.13;;;0.80;99.90;;;;;;5058175;28;20204;-66
2021/01/17 04:41:57;;;;;;;37.20;26.57;;;0.80;99.90;;;;;;5056236;28;20283;-66
2021/01/17 04:44:32;;;;;;;35.93;26.13;;;0.80;99.90;;;;;;5061412;28;20219;-66
2021/01/17 04:47:03;;;;;;;37.40;25.80;;;0.80;99.90;;;;;;5061993;28;20915;-66
2021/01/17 04:49:30;;;;;;;38.93;26.43;;;0.80;99.90;;;;;;5062052;28;20423;-66
2021/01/17 04:51:57;;;;;;;40.33;26.43;;;0.80;99.90;;;;;;5061510;28;20873;-66
2021/01/17 04:54:23;;;;;;;36.30;27.53;;;0.70;99.90;;;;;;5060474;28;20655;-66
2021/01/17 04:57:07;;;;;;;36.70;25.37;;;0.80;99.90;;;;;;5055327;28;20521;-66
2021/01/17 04:59:45;;;;;;;40.90;28.00;;;0.70;99.90;;;;;;5063163;28;20507;-66
2021/01/17 05:02:48;;;;;;;39.10;27.20;;;0.70;99.90;;;;;;5056808;28;20432;-66
2021/01/17 05:05:14;;;;;;;36.13;25.23;;;0.70;99.90;;;;;;5037704;28;20735;-66
2021/01/17 05:08:05;;;;;;;40.03;26.70;;;0.70;99.90;;;;;;5056888;28;20934;-66
2021/01/17 05:10:38;;;;;;;47.03;28.50;;;0.70;99.90;;;;;;5054335;28;20483;-66
2021/01/17 05:13:11;;;;;;;49.20;34.90;;;0.70;99.90;;;;;;5055056;28;20489;-66
2021/01/17 05:15:42;;;;;;;42.70;29.83;;;0.80;99.90;;;;;;5054981;28;20451;-66
2021/01/17 05:18:08;;;;;;;48.50;31.73;;;0.80;99.90;;;;;;5058026;28;20429;-66
2021/01/17 05:20:34;;;;;;;45.10;30.13;;;0.90;99.90;;;;;;5054566;28;20425;-66
2021/01/17 05:23:00;;;;;;;43.37;28.93;;;0.90;99.90;;;;;;5056220;28;20430;-66
2021/01/17 05:25:28;;;;;;;47.30;30.43;;;0.90;99.90;;;;;;5060003;28;20428;-66
2021/01/17 05:27:54;;;;;;;40.13;28.03;;;0.90;99.90;;;;;;5053836;28;20183;-66
2021/01/17 05:30:19;;;;;;;44.47;31.07;;;0.90;99.90;;;;;;5056904;28;20461;-66
2021/01/17 05:32:53;;;;;;;47.67;30.57;;;0.90;99.90;;;;;;5057785;28;20758;-66
2021/01/17 05:35:20;;;;;;;41.63;29.17;;;0.90;99.90;;;;;;5064407;28;20287;-66
2021/01/17 05:37:55;;;;;;;46.03;27.47;;;0.90;99.90;;;;;;5056354;28;20829;-65
2021/01/17 05:40:22;;;;;;;41.17;27.93;;;0.90;99.90;;;;;;5057441;28;20445;-66
2021/01/17 05:42:49;;;;;;;49.60;29.50;;;0.90;99.90;;;;;;5062187;28;20513;-66
2021/01/17 05:45:17;;;;;;;40.00;27.03;;;0.90;99.90;;;;;;5056903;28;20517;-66
2021/01/17 05:47:55;;;;;;;49.40;32.00;;;1.00;99.90;;;;;;5061026;28;20431;-66
2021/01/17 05:50:21;;;;;;;39.03;27.67;;;1.00;99.90;;;;;;5055760;28;21117;-66
2021/01/17 05:52:54;;;;;;;44.70;30.70;;;1.00;99.90;;;;;;5064974;28;20844;-66
2021/01/17 05:55:36;;;;;;;40.97;27.90;;;1.00;99.90;;;;;;5056608;28;20462;-66
2021/01/17 05:58:32;;;;;;;48.53;30.43;;;1.00;99.90;;;;;;5054210;28;20447;-66
2021/01/17 06:01:15;;;;;;;46.63;29.37;;;1.00;99.90;;;;;;5054390;28;20469;-65
2021/01/17 06:03:49;;;;;;;47.37;32.13;;;1.10;99.90;;;;;;5065388;28;20421;-66
2021/01/17 06:06:30;;;;;;;49.73;30.33;;;1.00;99.90;;;;;;5061086;28;20422;-66
2021/01/17 06:08:58;;;;;;;58.83;31.13;;;1.00;99.90;;;;;;5057346;28;20429;-66
2021/01/17 06:11:24;;;;;;;49.50;31.07;;;1.00;99.90;;;;;;5055415;28;20697;-66
2021/01/17 06:14:02;;;;;;;49.27;31.10;;;1.00;99.90;;;;;;5070142;28;20521;-66
2021/01/17 06:16:39;;;;;;;48.17;30.27;;;0.90;99.90;;;;;;5058762;28;20459;-65
2021/01/17 06:19:06;;;;;;;44.43;31.33;;;0.90;99.90;;;;;;5059391;28;20425;-66
2021/01/17 06:21:33;;;;;;;51.27;30.57;;;0.90;99.90;;;;;;5059578;28;20423;-65
2021/01/17 06:24:04;;;;;;;55.43;32.60;;;0.90;99.90;;;;;;5057651;28;20935;-65
2021/01/17 06:26:31;;;;;;;50.23;31.37;;;1.00;99.90;;;;;;5069334;28;20425;-65
2021/01/17 06:28:59;;;;;;;57.80;34.37;;;0.90;99.90;;;;;;5053105;28;20435;-66
2021/01/17 06:31:27;;;;;;;59.77;33.73;;;1.00;99.90;;;;;;5054383;28;20434;-65
2021/01/17 06:34:02;;;;;;;46.97;28.57;;;0.90;99.90;;;;;;5054076;28;20574;-66
2021/01/17 06:36:29;;;;;;;51.37;30.87;;;0.90;99.90;;;;;;5055940;28;20442;-65
2021/01/17 06:38:55;;;;;;;49.17;32.80;;;0.80;99.90;;;;;;5061930;28;20485;-66
2021/01/17 06:41:36;;;;;;;49.90;31.93;;;0.90;99.90;;;;;;5055377;28;20454;-66
2021/01/17 06:44:13;;;;;;;51.40;34.03;;;0.90;99.90;;;;;;5054599;28;20218;-65
2021/01/17 06:46:46;;;;;;;49.90;30.70;;;0.90;99.90;;;;;;5060863;28;20830;-65
2021/01/17 06:49:23;;;;;;;53.27;30.70;;;1.00;99.90;;;;;;5054222;28;20914;-66
2021/01/17 06:51:50;;;;;;;55.73;33.40;;;1.00;99.90;;;;;;5056371;28;20426;-66
2021/01/17 06:54:17;;;;;;;48.03;30.73;;;1.00;99.90;;;;;;5053349;28;20459;-66
2021/01/17 06:56:45;;;;;;;57.70;34.30;;;1.00;99.90;;;;;;5057298;28;20434;-66
2021/01/17 06:59:11;;;;;;;51.50;31.50;;;1.00;99.90;;;;;;5056193;28;20430;-66
2021/01/17 07:01:42;;;;;;;53.47;32.87;;;1.00;99.90;;;;;;5054436;28;20423;-65
2021/01/17 07:04:14;;;;;;;59.27;33.23;;;1.10;99.90;;;;;;5054309;28;20208;-66
2021/01/17 07:07:08;;;;;;;57.20;30.87;;;1.10;99.90;;;;;;5053600;28;20780;-66
2021/01/17 07:09:50;;;;;;;62.23;33.43;;;1.10;99.90;;;;;;5053087;28;20433;-66
2021/01/17 07:12:29;;;;;;;56.03;32.40;;;1.00;99.90;;;;;;5057527;28;20923;-66
2021/01/17 07:15:09;;;;;;;50.73;30.60;;;1.10;99.90;;;;;;5057348;28;20962;-66
2021/01/17 07:17:40;;;;;;;55.00;30.33;;;1.10;99.90;;;;;;5054970;28;20430;-65
2021/01/17 07:20:14;;;;;;;51.20;32.00;;;1.10;99.90;;;;;;5060574;28;20426;-66
2021/01/17 07:22:43;;;;;;;51.27;31.93;;;1.10;99.90;;;;;;5056589;28;20470;-66
2021/01/17 07:25:11;;;;;;;48.93;30.87;;;1.10;99.90;;;;;;5054750;28;20855;-66
2021/01/17 07:27:54;;;;;;;56.57;33.30;;;1.10;99.90;;;;;;5055026;28;20426;-66
2021/01/17 07:30:32;;;;;;;50.63;30.47;;;1.10;99.90;;;;;;5052583;28;20423;-66
2021/01/17 07:33:03;;;;;;;48.23;30.10;;;1.10;99.90;;;;;;5053385;28;20474;-66
2021/01/17 07:35:55;;;;;;;44.83;29.40;;;1.10;99.90;;;;;;5061064;28;20453;-66
2021/01/17 07:38:26;;;;;;;45.40;27.67;;;1.10;99.90;;;;;;5053009;28;20457;-66
2021/01/17 07:41:05;;;;;;;48.97;27.33;;;1.10;99.90;;;;;;5052650;28;20441;-65
2021/01/17 07:43:35;;;;;;;40.40;26.57;;;1.00;99.90;;;;;;5058924;28;20791;-66
2021/01/17 07:46:03;;;;;;;47.10;27.37;;;1.00;99.90;;;;;;5055415;28;20442;-66
2021/01/17 07:48:29;;;;;;;47.70;27.00;;;1.00;99.90;;;;;;5052395;28;20430;-66
2021/01/17 07:50:57;;;;;;;46.57;29.57;;;1.00;99.90;;;;;;5058971;28;20441;-66
2021/01/17 07:53:32;;;;;;;50.10;29.47;;;1.10;99.90;;;;;;5053273;28;20449;-66
2021/01/17 07:56:08;;;;;;;45.53;27.20;;;1.10;99.90;;;;;;5053944;28;20444;-66
2021/01/17 07:58:47;;;;;;;45.47;27.10;;;1.10;99.90;;;;;;5057607;28;20900;-66
2021/01/17 08:01:31;;;;;;;50.03;28.90;;;1.10;99.90;;;;;;5053540;28;21209;-66
2021/01/17 08:04:11;;;;;;;50.80;31.27;;;1.20;99.90;;;;;;5054139;28;20442;-66
2021/01/17 08:06:36;;;;;;;54.97;29.53;;;1.30;99.90;;;;;;5053396;28;20509;-66
2021/01/17 08:09:02;;;;;;;48.90;29.77;;;1.30;99.90;;;;;;5053357;28;20529;-66
2021/01/17 08:12:02;;;;;;;53.50;30.03;;;1.30;99.90;;;;;;5055943;28;20180;-66
2021/01/17 08:14:32;;;;;;;46.80;28.23;;;1.30;99.90;;;;;;5023708;28;20215;-66
2021/01/17 08:17:04;;;;;;;45.80;28.27;;;1.40;99.90;;;;;;5056223;28;20429;-66
2021/01/17 08:19:40;;;;;;;47.87;28.50;;;1.40;99.90;;;;;;5052394;28;20426;-66
2021/01/17 08:22:17;;;;;;;46.50;27.20;;;1.40;99.90;;;;;;5051438;28;20904;-65
2021/01/17 08:24:51;;;;;;;44.40;28.40;;;1.40;99.90;;;;;;5052381;28;20426;-66
2021/01/17 08:27:32;;;;;;;44.63;27.93;;;1.40;99.90;;;;;;5054213;28;20496;-66
2021/01/17 08:30:00;;;;;;;48.03;28.67;;;1.40;99.90;;;;;;5053893;28;20434;-66
2021/01/17 08:32:38;;;;;;;47.60;28.80;;;1.50;99.90;;;;;;5051786;28;20815;-66
2021/01/17 08:35:19;;;;;;;47.73;27.40;;;1.40;99.90;;;;;;5056560;28;20480;-66
2021/01/17 08:37:56;;;;;;;45.70;28.73;;;1.50;99.90;;;;;;5053306;28;20415;-66
2021/01/17 08:40:27;;;;;;;44.40;26.97;;;1.60;99.90;;;;;;5051547;28;20438;-66
2021/01/17 08:43:07;;;;;;;44.17;26.03;;;1.50;99.90;;;;;;5053557;28;20945;-66
2021/01/17 08:45:48;;;;;;;42.53;28.10;;;1.60;99.90;;;;;;5054678;28;20434;-66
2021/01/17 08:48:17;;;;;;;47.73;29.47;;;1.60;99.90;;;;;;5055272;28;20440;-66
2021/01/17 08:50:43;;;;;;;43.90;28.20;;;1.70;99.90;;;;;;5056574;28;20480;-66
2021/01/17 08:53:23;;;;;;;41.63;28.10;;;1.70;99.90;;;;;;5051858;28;20423;-66
2021/01/17 08:55:50;;;;;;;46.00;28.00;;;1.70;99.90;;;;;;5052194;28;20524;-66
2021/01/17 08:58:28;;;;;;;44.17;26.57;;;1.80;99.90;;;;;;5052277;28;20453;-66
2021/01/17 09:00:57;;;;;;;44.03;28.27;;;1.80;99.90;;;;;;5052104;28;20422;-66
2021/01/17 09:03:23;;;;;;;42.87;27.70;;;1.90;99.90;;;;;;5052409;28;20430;-65
2021/01/17 09:05:50;;;;;;;44.23;28.53;;;1.90;99.90;;;;;;5052731;28;20460;-66
2021/01/17 09:08:17;;;;;;;46.67;28.60;;;1.90;99.90;;;;;;5056386;28;20787;-66
2021/01/17 09:10:43;;;;;;;44.43;27.43;;;1.90;99.90;;;;;;5050491;28;20441;-66
2021/01/17 09:13:17;;;;;;;46.87;30.53;;;1.90;99.90;;;;;;5052788;28;20431;-66
2021/01/17 09:16:02;;;;;;;43.80;27.73;;;1.90;99.90;;;;;;5055699;28;20191;-65
2021/01/17 09:18:29;;;;;;;43.67;27.70;;;1.90;99.90;;;;;;5062785;28;20428;-66
2021/01/17 09:20:56;;;;;;;44.53;28.67;;;2.00;99.90;;;;;;5059493;28;20434;-66
2021/01/17 09:23:23;;;;;;;40.57;26.27;;;2.00;99.90;;;;;;5055959;28;20430;-66
2021/01/17 09:25:57;;;;;;;40.53;27.93;;;2.00;99.90;;;;;;5073988;28;20832;-66
2021/01/17 09:28:23;;;;;;;36.93;25.43;;;2.00;99.90;;;;;;5057089;28;20524;-66
2021/01/17 09:30:54;;;;;;;44.13;26.40;;;2.00;99.90;;;;;;5054566;28;20509;-66
2021/01/17 09:33:20;;;;;;;39.00;27.23;;;2.10;99.90;;;;;;5054929;28;20506;-66
2021/01/17 09:35:47;;;;;;;42.00;27.43;;;2.10;99.90;;;;;;5058152;28;20543;-66
2021/01/17 09:38:20;;;;;;;36.80;24.77;;;2.10;99.90;;;;;;5056791;28;20187;-66
2021/01/17 09:40:50;;;;;;;37.47;24.50;;;2.20;99.90;;;;;;5055638;28;20426;-66
2021/01/17 09:43:16;;;;;;;41.80;27.13;;;2.30;99.90;;;;;;5054628;28;20959;-66
2021/01/17 09:45:49;;;;;;;43.20;27.77;;;2.30;99.90;;;;;;5075189;28;20437;-66
2021/01/17 09:48:22;;;;;;;42.57;28.87;;;2.40;99.90;;;;;;5056788;28;20429;-66
2021/01/17 09:50:49;;;;;;;40.67;27.60;;;2.40;99.90;;;;;;5063372;28;20449;-66
2021/01/17 09:53:15;;;;;;;45.10;29.17;;;2.40;99.90;;;;;;5060864;28;20439;-66
2021/01/17 09:55:42;;;;;;;36.90;24.80;;;2.40;99.90;;;;;;5055254;28;20454;-66
2021/01/17 09:58:08;;;;;;;38.17;26.17;;;2.50;99.90;;;;;;5056203;28;20231;-66
2021/01/17 10:00:35;;;;;;;41.97;29.03;;;2.50;99.90;;;;;;5057341;28;20431;-66
2021/01/17 10:03:14;;;;;;;37.30;25.73;;;2.60;99.90;;;;;;5073469;28;20583;-66
2021/01/17 10:05:42;;;;;;;41.60;27.17;;;2.60;99.90;;;;;;5057681;28;20951;-66
2021/01/17 10:08:09;;;;;;;36.10;23.67;;;2.70;99.90;;;;;;5056314;28;20434;-66
2021/01/17 10:10:37;;;;;;;39.53;26.93;;;2.70;99.90;;;;;;5060603;28;20815;-66
2021/01/17 10:13:03;;;;;;;35.23;25.53;;;2.70;99.90;;;;;;5060214;28;20496;-65
2021/01/17 10:15:29;;;;;;;47.37;26.90;;;2.80;99.90;;;;;;5061645;28;20462;-65
2021/01/17 10:17:55;;;;;;;36.77;25.70;;;2.80;99.90;;;;;;5061354;28;20430;-67
2021/01/17 10:20:27;;;;;;;38.53;25.43;;;2.90;99.90;;;;;;5054771;28;20527;-65
2021/01/17 10:23:00;;;;;;;43.77;27.50;;;3.00;99.90;;;;;;5054353;28;20180;-67
2021/01/17 10:25:27;;;;;;;41.70;26.80;;;3.00;99.90;;;;;;5057337;28;20426;-65
2021/01/17 10:28:00;;;;;;;34.70;25.90;;;3.00;99.90;;;;;;5053381;28;20438;-66
2021/01/17 10:30:33;;;;;;;35.47;24.60;;;3.00;99.90;;;;;;5059007;28;20441;-66
2021/01/17 10:33:05;;;;;;;37.63;24.90;;;3.00;99.90;;;;;;5052320;28;21265;-65
2021/01/17 10:35:32;;;;;;;37.13;24.73;;;3.00;99.90;;;;;;5054726;28;20501;-65
2021/01/17 10:37:58;;;;;;;35.17;24.80;;;3.10;99.90;;;;;;5055559;28;20521;-65
2021/01/17 10:40:28;;;;;;;36.80;25.27;;;3.00;99.90;;;;;;5054305;28;20491;-65
2021/01/17 10:42:57;;;;;;;34.53;26.30;;;3.00;99.90;;;;;;5054378;28;20433;-65
2021/01/17 10:45:25;;;;;;;37.50;26.00;;;3.00;99.90;;;;;;5053668;28;20469;-65
2021/01/17 10:48:05;;;;;;;35.77;24.60;;;3.10;99.90;;;;;;5054528;28;20473;-65
2021/01/17 10:50:41;;;;;;;33.03;22.83;;;3.00;99.90;;;;;;5060174;28;20430;-65
2021/01/17 10:53:13;;;;;;;31.90;21.50;;;3.00;99.90;;;;;;5059193;28;20814;-65
2021/01/17 10:55:44;;;;;;;34.77;22.77;;;3.10;99.90;;;;;;5054321;28;20869;-65
2021/01/17 10:58:16;;;;;;;34.03;23.47;;;3.10;99.90;;;;;;5053814;28;20446;-65
2021/01/17 11:00:59;;;;;;;30.93;21.70;;;3.10;99.90;;;;;;5052371;28;20423;-65
2021/01/17 11:03:36;;;;;;;29.23;22.50;;;3.10;99.90;;;;;;5053623;28;20961;-65
2021/01/17 11:06:11;;;;;;;30.13;21.70;;;3.10;99.90;;;;;;5055663;28;20427;-65
2021/01/17 11:08:41;;;;;;;30.27;22.70;;;3.20;99.90;;;;;;5053981;28;20433;-66
2021/01/17 11:11:07;;;;;;;27.93;20.70;;;3.20;99.90;;;;;;5055638;28;20950;-65
2021/01/17 11:13:32;;;;;;;28.67;21.10;;;3.20;99.90;;;;;;5054944;28;20781;-65
2021/01/17 11:15:58;;;;;;;30.37;20.67;;;3.20;99.90;;;;;;5056227;28;20458;-65
2021/01/17 11:18:25;;;;;;;28.73;22.00;;;3.20;99.90;;;;;;5056388;28;20531;-65
2021/01/17 11:21:01;;;;;;;25.97;20.30;;;3.20;99.90;;;;;;5057183;28;20629;-65
2021/01/17 11:23:28;;;;;;;27.40;22.03;;;3.20;99.90;;;;;;5059950;28;20437;-65
2021/01/17 11:26:02;;;;;;;28.33;21.50;;;3.20;99.90;;;;;;5055794;28;20427;-65
2021/01/17 11:28:28;;;;;;;32.30;20.43;;;3.30;99.90;;;;;;5052694;28;20436;-65
2021/01/17 11:31:11;;;;;;;25.90;18.80;;;3.40;99.90;;;;;;5064554;28;21040;-65
2021/01/17 11:33:36;;;;;;;23.67;17.70;;;3.40;99.90;;;;;;5053375;28;20462;-65
2021/01/17 11:36:02;;;;;;;28.30;20.40;;;3.50;99.90;;;;;;5052979;28;20981;-65
2021/01/17 11:38:44;;;;;;;26.10;20.10;;;3.60;99.90;;;;;;5052790;28;20203;-65
2021/01/17 11:41:12;;;;;;;23.27;17.80;;;3.80;99.90;;;;;;5053981;28;20434;-65
2021/01/17 11:43:37;;;;;;;21.53;17.20;;;3.90;99.90;;;;;;5052153;28;20426;-65
2021/01/17 11:46:08;;;;;;;21.00;16.10;;;3.90;99.90;;;;;;5068448;28;20433;-65
2021/01/17 11:48:34;;;;;;;24.00;17.60;;;4.00;99.90;;;;;;5056217;28;20233;-65
2021/01/17 11:51:01;;;;;;;24.00;16.40;;;4.00;99.90;;;;;;5058941;28;20438;-65
2021/01/17 11:53:27;;;;;;;20.50;15.53;;;4.00;99.90;;;;;;5055301;28;20935;-65
2021/01/17 11:55:53;;;;;;;20.60;16.60;;;4.10;99.90;;;;;;5054154;28;20512;-65
2021/01/17 11:58:19;;;;;;;23.30;16.83;;;4.10;99.90;;;;;;5059043;28;20431;-65
2021/01/17 12:00:52;;;;;;;24.00;18.03;;;4.10;99.90;;;;;;5053805;28;20504;-65
2021/01/17 12:03:27;;;;;;;26.13;21.80;;;4.10;99.90;;;;;;5059142;28;20423;-65
2021/01/17 12:06:15;;;;;;;27.60;21.63;;;4.10;99.90;;;;;;5053488;28;20754;-66
2021/01/17 12:08:48;;;;;;;27.90;18.87;;;4.10;99.90;;;;;;5044782;28;20437;-65
2021/01/17 12:11:33;;;;;;;26.30;19.17;;;4.00;99.90;;;;;;5057154;28;20433;-65
2021/01/17 12:14:00;;;;;;;24.73;20.37;;;3.90;99.90;;;;;;5053358;28;20430;-65
2021/01/17 12:16:27;;;;;;;26.87;20.63;;;3.90;99.90;;;;;;5052477;28;20923;-65
2021/01/17 12:18:52;;;;;;;29.40;21.07;;;3.90;99.90;;;;;;5061067;28;20469;-65
2021/01/17 12:21:25;;;;;;;29.80;22.10;;;3.90;99.90;;;;;;5062421;28;20460;-65
2021/01/17 12:23:52;;;;;;;31.40;20.63;;;4.00;99.90;;;;;;5049943;28;20271;-65
2021/01/17 12:26:18;;;;;;;27.37;20.50;;;4.00;99.90;;;;;;5050977;28;20430;-65
2021/01/17 12:28:45;;;;;;;30.67;22.03;;;4.00;99.90;;;;;;5053131;28;20927;-65
2021/01/17 12:31:15;;;;;;;34.70;23.27;;;4.00;99.90;;;;;;5056381;28;20465;-65
2021/01/17 12:33:41;;;;;;;33.13;22.77;;;4.00;99.90;;;;;;5051403;28;20974;-66
2021/01/17 12:36:12;;;;;;;32.10;20.63;;;4.10;99.90;;;;;;5053863;28;20526;-65
2021/01/17 12:38:39;;;;;;;40.63;23.90;;;4.10;99.90;;;;;;5054408;28;20242;-65
2021/01/17 12:41:13;;;;;;;44.87;23.50;;;4.10;99.90;;;;;;5067868;28;20435;-65
2021/01/17 12:43:40;;;;;;;42.10;24.57;;;4.00;99.90;;;;;;5053107;28;20438;-65
2021/01/17 12:46:07;;;;;;;41.27;23.10;;;4.00;99.90;;;;;;5056542;28;20461;-65
2021/01/17 12:48:34;;;;;;;40.77;23.03;;;4.00;99.90;;;;;;5059074;28;20469;-65
2021/01/17 12:50:59;;;;;;;41.53;25.40;;;4.00;99.90;;;;;;5054555;28;20437;-65